sensor_id;sensor_type;location;lat;lon;timestamp;pressure;altitude;pressure_sealevel;temperature;humidity
76847;BME280;65813;49.546;8.644;2024-01-15T04:46:27;99610.59;;;-2.25;88.52
76847;BME280;65813;49.546;8.644;2024-01-15T04:50:28;99595.09;;;-2.29;88.07
76847;BME280;65813;49.546;8.644;2024-01-15T04:54:28;99593.56;;;-2.35;88.79
76847;BME280;65813;49.546;8.644;2024-01-15T04:58:29;99604.03;;;-2.36;88.64
76847;BME280;65813;49.546;8.644;2024-01-15T05:02:29;99591.94;;;-2.39;89.41
76847;BME280;65813;49.546;8.644;2024-01-15T05:06:29;99588.75;;;-2.22;89.25
76847;BME280;65813;49.546;8.644;2024-01-15T05:10:30;99581.72;;;-2.20;88.95
76847;BME280;65813;49.546;8.644;2024-01-15T05:14:30;99592.34;;;-2.25;89.09
76847;BME280;65813;49.546;8.644;2024-01-15T05:18:30;99580.91;;;-2.21;88.69
76847;BME280;65813;49.546;8.644;2024-01-15T05:22:30;99589.91;;;-2.31;89.09
76847;BME280;65813;49.546;8.644;2024-01-15T05:26:31;99584.44;;;-2.23;88.87
76847;BME280;65813;49.546;8.644;2024-01-15T05:30:31;99567.94;;;-2.24;88.91
76847;BME280;65813;49.546;8.644;2024-01-15T05:34:32;99570.34;;;-2.18;88.71
76847;BME280;65813;49.546;8.644;2024-01-15T05:38:32;99573.75;;;-2.16;89.21
76847;BME280;65813;49.546;8.644;2024-01-15T05:42:32;99584.97;;;-2.14;88.73
76847;BME280;65813;49.546;8.644;2024-01-15T05:46:33;99577.13;;;-2.14;88.59
76847;BME280;65813;49.546;8.644;2024-01-15T05:50:33;99573.75;;;-2.16;89.11
76847;BME280;65813;49.546;8.644;2024-01-15T05:54:33;99568.31;;;-2.10;89.51
76847;BME280;65813;49.546;8.644;2024-01-15T05:58:34;99581.53;;;-2.14;89.37
76847;BME280;65813;49.546;8.644;2024-01-15T06:02:34;99579.56;;;-2.08;89.40
76847;BME280;65813;49.546;8.644;2024-01-15T06:06:34;99574.13;;;-2.01;89.16
76847;BME280;65813;49.546;8.644;2024-01-15T06:10:35;99564.69;;;-2.06;89.65
76847;BME280;65813;49.546;8.644;2024-01-15T06:14:36;99553.31;;;-1.80;88.15
76847;BME280;65813;49.546;8.644;2024-01-15T06:18:36;99559.25;;;-1.99;89.16
76847;BME280;65813;49.546;8.644;2024-01-15T06:22:38;99566.19;;;-1.98;89.32
76847;BME280;65813;49.546;8.644;2024-01-15T06:26:39;99546.78;;;-1.91;89.17
76847;BME280;65813;49.546;8.644;2024-01-15T06:30:39;99561.81;;;-1.98;88.95
76847;BME280;65813;49.546;8.644;2024-01-15T06:34:40;99556.59;;;-1.98;89.15
76847;BME280;65813;49.546;8.644;2024-01-15T06:38:40;99558.47;;;-2.01;88.96
76847;BME280;65813;49.546;8.644;2024-01-15T06:42:41;99553.84;;;-1.93;89.34
76847;BME280;65813;49.546;8.644;2024-01-15T06:46:45;99561.69;;;-1.95;89.23
76847;BME280;65813;49.546;8.644;2024-01-15T06:50:45;99559.59;;;-1.85;89.34
76847;BME280;65813;49.546;8.644;2024-01-15T06:54:46;99557.00;;;-1.85;89.32
76847;BME280;65813;49.546;8.644;2024-01-15T06:58:46;99559.03;;;-1.93;90.12
76847;BME280;65813;49.546;8.644;2024-01-15T07:02:46;99550.09;;;-1.86;90.28
76847;BME280;65813;49.546;8.644;2024-01-15T07:06:47;99551.97;;;-1.90;90.25
76847;BME280;65813;49.546;8.644;2024-01-15T07:10:48;99550.91;;;-1.86;90.03
76847;BME280;65813;49.546;8.644;2024-01-15T07:14:49;99561.31;;;-1.84;90.50
76847;BME280;65813;49.546;8.644;2024-01-15T07:18:49;99560.41;;;-1.83;90.16
76847;BME280;65813;49.546;8.644;2024-01-15T07:22:49;99550.84;;;-1.83;90.10
76847;BME280;65813;49.546;8.644;2024-01-15T07:26:50;99550.47;;;-1.74;89.79
76847;BME280;65813;49.546;8.644;2024-01-15T07:30:50;99555.09;;;-1.80;90.54
76847;BME280;65813;49.546;8.644;2024-01-15T07:34:50;99554.59;;;-1.68;90.37
76847;BME280;65813;49.546;8.644;2024-01-15T07:38:51;99552.41;;;-1.79;90.55
76847;BME280;65813;49.546;8.644;2024-01-15T07:42:51;99555.59;;;-1.71;90.44
76847;BME280;65813;49.546;8.644;2024-01-15T07:46:52;99550.13;;;-1.65;90.30
76847;BME280;65813;49.546;8.644;2024-01-15T07:50:52;99550.97;;;-1.64;90.60
76847;BME280;65813;49.546;8.644;2024-01-15T07:54:53;99538.50;;;-1.56;90.19
76847;BME280;65813;49.546;8.644;2024-01-15T07:58:53;99536.75;;;-1.56;90.33
76847;BME280;65813;49.546;8.644;2024-01-15T08:02:54;99531.56;;;-1.57;90.57
76847;BME280;65813;49.546;8.644;2024-01-15T08:06:54;99528.84;;;-1.54;90.51
76847;BME280;65813;49.546;8.644;2024-01-15T08:10:54;99532.44;;;-1.57;90.59
76847;BME280;65813;49.546;8.644;2024-01-15T08:14:55;99529.66;;;-1.52;90.40
76847;BME280;65813;49.546;8.644;2024-01-15T08:18:55;99532.44;;;-1.57;90.87
76847;BME280;65813;49.546;8.644;2024-01-15T08:22:56;99526.91;;;-1.49;90.16
76847;BME280;65813;49.546;8.644;2024-01-15T08:26:56;99524.31;;;-1.49;90.34
76847;BME280;65813;49.546;8.644;2024-01-15T08:30:57;99523.31;;;-1.46;90.80
76847;BME280;65813;49.546;8.644;2024-01-15T08:34:57;99512.72;;;-1.42;90.24
76847;BME280;65813;49.546;8.644;2024-01-15T08:38:57;99518.06;;;-1.45;90.84
76847;BME280;65813;49.546;8.644;2024-01-15T08:42:58;99513.75;;;-1.46;92.32
76847;BME280;65813;49.546;8.644;2024-01-15T08:46:58;99517.31;;;-1.48;92.74
76847;BME280;65813;49.546;8.644;2024-01-15T08:50:59;99520.44;;;-1.39;91.49
76847;BME280;65813;49.546;8.644;2024-01-15T08:54:59;99509.72;;;-1.33;92.57
76847;BME280;65813;49.546;8.644;2024-01-15T08:59:01;99507.28;;;-1.37;93.42
76847;BME280;65813;49.546;8.644;2024-01-15T09:03:01;99513.19;;;-1.32;93.63
76847;BME280;65813;49.546;8.644;2024-01-15T09:07:02;99511.06;;;-1.23;93.01
76847;BME280;65813;49.546;8.644;2024-01-15T09:11:03;99519.03;;;-1.26;93.37
76847;BME280;65813;49.546;8.644;2024-01-15T09:15:04;99512.91;;;-1.25;93.98
76847;BME280;65813;49.546;8.644;2024-01-15T09:19:04;99509.56;;;-1.28;94.05
76847;BME280;65813;49.546;8.644;2024-01-15T09:23:04;99495.78;;;-1.32;94.76
76847;BME280;65813;49.546;8.644;2024-01-15T09:27:05;99482.59;;;-1.29;95.10
76847;BME280;65813;49.546;8.644;2024-01-15T09:31:05;99499.03;;;-1.27;95.49
76847;BME280;65813;49.546;8.644;2024-01-15T09:35:06;99502.59;;;-1.28;95.85
76847;BME280;65813;49.546;8.644;2024-01-15T09:39:07;99508.47;;;-1.23;96.13
76847;BME280;65813;49.546;8.644;2024-01-15T09:43:09;99506.75;;;-1.24;96.34
76847;BME280;65813;49.546;8.644;2024-01-15T09:47:10;99514.72;;;-1.27;97.22
76847;BME280;65813;49.546;8.644;2024-01-15T09:51:10;99511.91;;;-1.22;97.51
76847;BME280;65813;49.546;8.644;2024-01-15T09:55:11;99502.19;;;-1.19;98.12
76847;BME280;65813;49.546;8.644;2024-01-15T09:59:22;99504.88;;;-1.20;98.53
76847;BME280;65813;49.546;8.644;2024-01-15T10:03:23;99506.53;;;-1.18;98.96
76847;BME280;65813;49.546;8.644;2024-01-15T10:07:25;99489.78;;;-1.14;99.38
76847;BME280;65813;49.546;8.644;2024-01-15T10:11:26;99482.50;;;-1.06;98.95
76847;BME280;65813;49.546;8.644;2024-01-15T10:15:26;99484.38;;;-1.09;99.22
76847;BME280;65813;49.546;8.644;2024-01-15T10:19:26;99486.22;;;-1.11;99.80
76847;BME280;65813;49.546;8.644;2024-01-15T10:23:27;99474.13;;;-1.14;100.00
76847;BME280;65813;49.546;8.644;2024-01-15T10:27:28;99478.09;;;-1.04;100.00
76847;BME280;65813;49.546;8.644;2024-01-15T10:31:28;99485.91;;;-1.04;100.00
76847;BME280;65813;49.546;8.644;2024-01-15T10:35:33;99488.53;;;-1.04;100.00
76847;BME280;65813;49.546;8.644;2024-01-15T10:39:34;99484.25;;;-1.06;100.00
76847;BME280;65813;49.546;8.644;2024-01-15T10:43:35;99478.31;;;-1.10;100.00
76847;BME280;65813;49.546;8.644;2024-01-15T10:47:35;99477.16;;;-1.03;100.00
76847;BME280;65813;49.546;8.644;2024-01-15T10:51:37;99465.34;;;-0.91;100.00
76847;BME280;65813;49.546;8.644;2024-01-15T10:55:38;99462.00;;;-0.94;100.00
76847;BME280;65813;49.546;8.644;2024-01-15T10:59:39;99461.69;;;-0.87;100.00
76847;BME280;65813;49.546;8.644;2024-01-15T11:03:40;99449.72;;;-0.92;100.00
76847;BME280;65813;49.546;8.644;2024-01-15T11:07:41;99447.69;;;-0.86;100.00
76847;BME280;65813;49.546;8.644;2024-01-15T11:11:45;99446.00;;;-0.87;100.00
76847;BME280;65813;49.546;8.644;2024-01-15T11:16:08;99439.84;;;-0.86;100.00
76847;BME280;65813;49.546;8.644;2024-01-15T11:20:09;99444.25;;;-0.86;100.00
76847;BME280;65813;49.546;8.644;2024-01-15T11:24:09;99447.66;;;-0.84;100.00
76847;BME280;65813;49.546;8.644;2024-01-15T11:28:47;99449.81;;;-0.94;100.00
76847;BME280;65813;49.546;8.644;2024-01-15T11:32:48;99448.03;;;-0.93;100.00
76847;BME280;65813;49.546;8.644;2024-01-15T11:40:49;99445.94;;;-0.85;100.00
76847;BME280;65813;49.546;8.644;2024-01-15T11:44:50;99451.84;;;-0.80;100.00
76847;BME280;65813;49.546;8.644;2024-01-15T11:48:53;99439.53;;;-0.78;100.00
76847;BME280;65813;49.546;8.644;2024-01-15T11:53:03;99461.34;;;-0.79;100.00
76847;BME280;65813;49.546;8.644;2024-01-15T11:57:09;99456.22;;;-0.81;100.00
76847;BME280;65813;49.546;8.644;2024-01-15T12:01:13;99460.25;;;-0.74;100.00
76847;BME280;65813;49.546;8.644;2024-01-15T12:05:15;99448.91;;;-0.73;100.00
76847;BME280;65813;49.546;8.644;2024-01-15T12:09:19;99442.00;;;-0.55;100.00
76847;BME280;65813;49.546;8.644;2024-01-15T12:13:20;99448.31;;;-0.59;100.00
76847;BME280;65813;49.546;8.644;2024-01-15T12:17:20;99444.56;;;-0.54;100.00
76847;BME280;65813;49.546;8.644;2024-01-15T12:21:21;99451.34;;;-0.49;100.00
76847;BME280;65813;49.546;8.644;2024-01-15T12:25:24;99447.41;;;-0.39;100.00
76847;BME280;65813;49.546;8.644;2024-01-15T12:29:30;99453.50;;;-0.39;100.00
76847;BME280;65813;49.546;8.644;2024-01-15T12:33:31;99455.00;;;-0.33;100.00
76847;BME280;65813;49.546;8.644;2024-01-15T12:37:31;99453.81;;;-0.26;100.00
76847;BME280;65813;49.546;8.644;2024-01-15T12:41:31;99453.31;;;-0.16;100.00
76847;BME280;65813;49.546;8.644;2024-01-15T12:45:33;99442.53;;;-0.08;99.61
76847;BME280;65813;49.546;8.644;2024-01-15T12:49:38;99439.72;;;-0.04;99.57
76847;BME280;65813;49.546;8.644;2024-01-15T12:53:42;99447.88;;;0.08;96.88
76847;BME280;65813;49.546;8.644;2024-01-15T12:57:43;99446.53;;;0.18;95.47
76847;BME280;65813;49.546;8.644;2024-01-15T13:01:45;99454.25;;;0.21;93.22
76847;BME280;65813;49.546;8.644;2024-01-15T13:05:46;99446.47;;;0.19;92.72
76847;BME280;65813;49.546;8.644;2024-01-15T13:09:47;99460.19;;;0.24;91.13
76847;BME280;65813;49.546;8.644;2024-01-15T13:13:47;99459.28;;;0.25;92.22
76847;BME280;65813;49.546;8.644;2024-01-15T13:17:48;99452.44;;;0.23;91.99
76847;BME280;65813;49.546;8.644;2024-01-15T13:21:48;99455.81;;;0.25;91.16
76847;BME280;65813;49.546;8.644;2024-01-15T13:25:52;99455.66;;;0.28;91.43
76847;BME280;65813;49.546;8.644;2024-01-15T13:29:53;99460.69;;;0.32;90.07
76847;BME280;65813;49.546;8.644;2024-01-15T13:33:53;99464.16;;;0.33;91.39
76847;BME280;65813;49.546;8.644;2024-01-15T13:37:55;99465.88;;;0.34;89.83
76847;BME280;65813;49.546;8.644;2024-01-15T13:41:55;99472.78;;;0.35;91.12
76847;BME280;65813;49.546;8.644;2024-01-15T13:45:56;99472.94;;;0.32;90.41
76847;BME280;65813;49.546;8.644;2024-01-15T13:49:56;99476.34;;;0.34;89.71
76847;BME280;65813;49.546;8.644;2024-01-15T13:53:58;99471.88;;;0.36;90.29
76847;BME280;65813;49.546;8.644;2024-01-15T13:57:58;99471.13;;;0.34;90.18
76847;BME280;65813;49.546;8.644;2024-01-15T14:01:58;99485.06;;;0.34;90.99
76847;BME280;65813;49.546;8.644;2024-01-15T14:05:59;99484.47;;;0.46;90.63
76847;BME280;65813;49.546;8.644;2024-01-15T14:10:00;99479.94;;;0.50;90.52
76847;BME280;65813;49.546;8.644;2024-01-15T14:14:00;99481.91;;;0.45;89.82
76847;BME280;65813;49.546;8.644;2024-01-15T14:18:00;99484.28;;;0.51;90.68
76847;BME280;65813;49.546;8.644;2024-01-15T14:22:01;99489.66;;;0.48;89.47
76847;BME280;65813;49.546;8.644;2024-01-15T14:26:01;99489.50;;;0.51;89.12
76847;BME280;65813;49.546;8.644;2024-01-15T14:30:03;99498.94;;;0.55;88.77
76847;BME280;65813;49.546;8.644;2024-01-15T14:34:03;99500.47;;;0.59;88.08
76847;BME280;65813;49.546;8.644;2024-01-15T14:38:04;99512.34;;;0.66;86.88
76847;BME280;65813;49.546;8.644;2024-01-15T14:42:04;99513.41;;;0.62;87.85
76847;BME280;65813;49.546;8.644;2024-01-15T14:46:04;99508.88;;;0.66;87.30
76847;BME280;65813;49.546;8.644;2024-01-15T14:50:09;99511.44;;;0.67;86.12
76847;BME280;65813;49.546;8.644;2024-01-15T14:54:12;99520.06;;;0.69;86.87
76847;BME280;65813;49.546;8.644;2024-01-15T14:58:12;99527.34;;;0.81;86.91
76847;BME280;65813;49.546;8.644;2024-01-15T15:02:13;99536.28;;;0.77;85.65
76847;BME280;65813;49.546;8.644;2024-01-15T15:06:15;99537.19;;;0.76;85.80
76847;BME280;65813;49.546;8.644;2024-01-15T15:10:16;99536.50;;;0.73;87.19
76847;BME280;65813;49.546;8.644;2024-01-15T15:14:17;99543.03;;;0.64;87.33
76847;BME280;65813;49.546;8.644;2024-01-15T15:18:17;99549.19;;;0.63;86.46
76847;BME280;65813;49.546;8.644;2024-01-15T15:22:17;99555.13;;;0.67;86.78
76847;BME280;65813;49.546;8.644;2024-01-15T15:26:19;99549.03;;;0.66;86.22
76847;BME280;65813;49.546;8.644;2024-01-15T15:30:19;99555.13;;;0.67;86.78
76847;BME280;65813;49.546;8.644;2024-01-15T15:34:20;99554.28;;;0.66;86.42
76847;BME280;65813;49.546;8.644;2024-01-15T15:38:20;99569.38;;;0.61;85.68
76847;BME280;65813;49.546;8.644;2024-01-15T15:42:20;99578.16;;;0.60;86.13
76847;BME280;65813;49.546;8.644;2024-01-15T15:46:21;99575.22;;;0.66;85.35
76847;BME280;65813;49.546;8.644;2024-01-15T15:50:21;99590.19;;;0.64;84.78
76847;BME280;65813;49.546;8.644;2024-01-15T15:54:22;99596.78;;;0.54;86.21
76847;BME280;65813;49.546;8.644;2024-01-15T15:58:22;99610.72;;;0.55;85.72
76847;BME280;65813;49.546;8.644;2024-01-15T16:02:24;99606.53;;;0.50;85.32
76847;BME280;65813;49.546;8.644;2024-01-15T16:06:24;99613.53;;;0.50;85.51
76847;BME280;65813;49.546;8.644;2024-01-15T16:10:25;99624.69;;;0.55;84.94
76847;BME280;65813;49.546;8.644;2024-01-15T16:14:25;99627.28;;;0.55;82.54
76847;BME280;65813;49.546;8.644;2024-01-15T16:18:25;99635.16;;;0.55;83.26
76847;BME280;65813;49.546;8.644;2024-01-15T16:22:26;99642.72;;;0.61;82.96
76847;BME280;65813;49.546;8.644;2024-01-15T16:26:26;99636.50;;;0.64;83.61
76847;BME280;65813;49.546;8.644;2024-01-15T16:30:26;99648.88;;;0.60;83.59
76847;BME280;65813;49.546;8.644;2024-01-15T16:34:27;99652.63;;;0.55;81.87
76847;BME280;65813;49.546;8.644;2024-01-15T16:38:27;99664.69;;;0.59;82.74
76847;BME280;65813;49.546;8.644;2024-01-15T16:42:28;99671.13;;;0.52;84.24
76847;BME280;65813;49.546;8.644;2024-01-15T16:46:28;99674.50;;;0.54;82.34
76847;BME280;65813;49.546;8.644;2024-01-15T16:50:29;99677.47;;;0.46;81.19
76847;BME280;65813;49.546;8.644;2024-01-15T16:54:31;99692.53;;;0.41;82.02
76847;BME280;65813;49.546;8.644;2024-01-15T16:58:31;99693.25;;;0.44;81.43
76847;BME280;65813;49.546;8.644;2024-01-15T17:02:32;99701.75;;;0.49;81.13
76847;BME280;65813;49.546;8.644;2024-01-15T17:06:32;99697.78;;;0.41;81.80
76847;BME280;65813;49.546;8.644;2024-01-15T17:10:32;99710.78;;;0.42;81.14
76847;BME280;65813;49.546;8.644;2024-01-15T17:14:37;99709.69;;;0.48;81.05
76847;BME280;65813;49.546;8.644;2024-01-15T17:18:37;99703.03;;;0.41;82.33
76847;BME280;65813;49.546;8.644;2024-01-15T17:22:37;99706.13;;;0.49;81.19
76847;BME280;65813;49.546;8.644;2024-01-15T17:26:38;99711.31;;;0.50;80.92
76847;BME280;65813;49.546;8.644;2024-01-15T17:30:38;99734.91;;;0.50;81.21
76847;BME280;65813;49.546;8.644;2024-01-15T17:34:39;99732.41;;;0.47;81.37
76847;BME280;65813;49.546;8.644;2024-01-15T17:38:42;99747.19;;;0.48;80.40
76847;BME280;65813;49.546;8.644;2024-01-15T17:42:42;99744.66;;;0.47;80.93
76847;BME280;65813;49.546;8.644;2024-01-15T17:46:42;99742.91;;;0.47;82.41
76847;BME280;65813;49.546;8.644;2024-01-15T17:50:43;99747.88;;;0.54;79.90
76847;BME280;65813;49.546;8.644;2024-01-15T17:54:43;99749.75;;;0.50;80.41
76847;BME280;65813;49.546;8.644;2024-01-15T17:58:44;99742.81;;;0.49;79.89
76847;BME280;65813;49.546;8.644;2024-01-15T18:02:45;99761.28;;;0.46;80.41
76847;BME280;65813;49.546;8.644;2024-01-15T18:06:46;99765.66;;;0.45;80.41
76847;BME280;65813;49.546;8.644;2024-01-15T18:10:50;99777.13;;;0.43;80.82
76847;BME280;65813;49.546;8.644;2024-01-15T18:14:51;99784.59;;;0.52;79.54
76847;BME280;65813;49.546;8.644;2024-01-15T18:18:51;99792.25;;;0.57;79.71
76847;BME280;65813;49.546;8.644;2024-01-15T18:22:52;99788.75;;;0.58;79.62
76847;BME280;65813;49.546;8.644;2024-01-15T18:26:53;99801.13;;;0.54;79.50
76847;BME280;65813;49.546;8.644;2024-01-15T18:30:54;99809.34;;;0.45;80.72
76847;BME280;65813;49.546;8.644;2024-01-15T18:34:54;99812.94;;;0.42;81.30
76847;BME280;65813;49.546;8.644;2024-01-15T18:38:55;99807.72;;;0.42;81.49
76847;BME280;65813;49.546;8.644;2024-01-15T18:42:57;99817.53;;;0.37;81.37
76847;BME280;65813;49.546;8.644;2024-01-15T18:46:57;99821.00;;;0.38;81.77
76847;BME280;65813;49.546;8.644;2024-01-15T18:50:58;99825.19;;;0.42;82.28
76847;BME280;65813;49.546;8.644;2024-01-15T18:54:58;99820.66;;;0.45;80.81
76847;BME280;65813;49.546;8.644;2024-01-15T18:58:59;99823.16;;;0.48;81.06
76847;BME280;65813;49.546;8.644;2024-01-15T19:02:59;99834.88;;;0.40;81.60
76847;BME280;65813;49.546;8.644;2024-01-15T19:07:01;99836.97;;;0.32;81.50
76847;BME280;65813;49.546;8.644;2024-01-15T19:11:01;99840.56;;;0.29;81.86
76847;BME280;65813;49.546;8.644;2024-01-15T19:15:03;99862.50;;;0.27;81.91
76847;BME280;65813;49.546;8.644;2024-01-15T19:19:04;99866.16;;;0.23;82.21
76847;BME280;65813;49.546;8.644;2024-01-15T19:23:04;99864.09;;;0.31;81.67
76847;BME280;65813;49.546;8.644;2024-01-15T19:27:05;99866.38;;;0.38;82.28
76847;BME280;65813;49.546;8.644;2024-01-15T19:31:06;99875.28;;;0.34;82.76
76847;BME280;65813;49.546;8.644;2024-01-15T19:35:08;99874.44;;;0.34;82.28
76847;BME280;65813;49.546;8.644;2024-01-15T19:39:09;99875.16;;;0.37;83.00
76847;BME280;65813;49.546;8.644;2024-01-15T19:43:09;99882.03;;;0.40;82.62
76847;BME280;65813;49.546;8.644;2024-01-15T19:47:10;99891.00;;;0.34;82.15
76847;BME280;65813;49.546;8.644;2024-01-15T19:51:11;99892.06;;;0.29;82.03
76847;BME280;65813;49.546;8.644;2024-01-15T19:55:12;99905.13;;;0.30;80.84
76847;BME280;65813;49.546;8.644;2024-01-15T19:59:12;99901.69;;;0.28;81.83
76847;BME280;65813;49.546;8.644;2024-01-15T20:03:12;99915.66;;;0.29;81.81
76847;BME280;65813;49.546;8.644;2024-01-15T20:07:13;99914.88;;;0.27;82.95
76847;BME280;65813;49.546;8.644;2024-01-15T20:11:13;99925.47;;;0.24;82.02
76847;BME280;65813;49.546;8.644;2024-01-15T20:15:14;99924.72;;;0.20;82.23
76847;BME280;65813;49.546;8.644;2024-01-15T20:19:14;99926.41;;;0.21;82.98
76847;BME280;65813;49.546;8.644;2024-01-15T20:23:15;99931.47;;;0.26;81.35
76847;BME280;65813;49.546;8.644;2024-01-15T20:27:15;99943.72;;;0.25;80.34
76847;BME280;65813;49.546;8.644;2024-01-15T20:31:16;99946.50;;;0.21;82.33
76847;BME280;65813;49.546;8.644;2024-01-15T20:35:17;99958.81;;;0.19;81.82
76847;BME280;65813;49.546;8.644;2024-01-15T20:39:18;99958.03;;;0.17;81.89
76847;BME280;65813;49.546;8.644;2024-01-15T20:43:19;99961.09;;;0.05;81.02
76847;BME280;65813;49.546;8.644;2024-01-15T20:47:19;99968.94;;;0.05;81.64
76847;BME280;65813;49.546;8.644;2024-01-15T20:51:20;99985.28;;;-0.12;81.76
76847;BME280;65813;49.546;8.644;2024-01-15T20:55:20;99986.25;;;-0.15;82.74
76847;BME280;65813;49.546;8.644;2024-01-15T20:59:21;99981.06;;;-0.16;82.20
76847;BME280;65813;49.546;8.644;2024-01-15T21:03:21;99997.78;;;-0.20;82.53
76847;BME280;65813;49.546;8.644;2024-01-15T21:07:22;99998.75;;;-0.23;82.46
76847;BME280;65813;49.546;8.644;2024-01-15T21:11:22;99995.38;;;-0.26;83.46
76847;BME280;65813;49.546;8.644;2024-01-15T21:15:23;99989.38;;;-0.28;82.69
76847;BME280;65813;49.546;8.644;2024-01-15T21:19:23;99982.44;;;-0.29;82.72
76847;BME280;65813;49.546;8.644;2024-01-15T21:23:23;99998.28;;;-0.34;82.75
76847;BME280;65813;49.546;8.644;2024-01-15T21:27:24;99995.88;;;-0.40;82.71
76847;BME280;65813;49.546;8.644;2024-01-15T21:31:24;100008.59;;;-0.29;82.06
76847;BME280;65813;49.546;8.644;2024-01-15T21:35:25;100006.47;;;-0.43;81.82
76847;BME280;65813;49.546;8.644;2024-01-15T21:39:25;100003.81;;;-0.41;82.74
76847;BME280;65813;49.546;8.644;2024-01-15T21:43:26;100011.34;;;-0.34;82.48
76847;BME280;65813;49.546;8.644;2024-01-15T21:47:26;100008.81;;;-0.35;82.50
76847;BME280;65813;49.546;8.644;2024-01-15T21:51:28;100006.34;;;-0.40;82.55
76847;BME280;65813;49.546;8.644;2024-01-15T21:55:28;100010.72;;;-0.40;82.61
76847;BME280;65813;49.546;8.644;2024-01-15T21:59:28;100010.41;;;-0.31;82.70
76847;BME280;65813;49.546;8.644;2024-01-15T22:03:29;100013.41;;;-0.42;83.44
76847;BME280;65813;49.546;8.644;2024-01-15T22:07:29;100024.72;;;-0.41;83.42
76847;BME280;65813;49.546;8.644;2024-01-15T22:11:30;100031.91;;;-0.48;83.72
